createdAt,value
2023-03-16T00:03:54.697Z,20.75
2023-03-16T00:10:37.048Z,18.50
2023-03-16T00:17:21.207Z,18.75
2023-03-16T00:24:03.733Z,18.23
2023-03-16T00:30:47.414Z,19.05
2023-03-16T00:37:32.761Z,18.00
2023-03-16T00:44:16.154Z,21.42
2023-03-16T00:50:58.482Z,21.00
2023-03-16T00:57:41.442Z,22.38
2023-03-16T01:04:23.781Z,19.50
2023-03-16T01:11:10.429Z,19.88
2023-03-16T01:17:52.737Z,20.15
2023-03-16T01:24:35.470Z,19.13
2023-03-16T01:31:17.877Z,19.90
2023-03-16T01:38:00.343Z,19.75
2023-03-16T01:44:57.415Z,17.70
2023-03-16T01:51:54.854Z,19.17
2023-03-16T01:58:39.905Z,20.17
2023-03-16T02:05:57.718Z,21.98
2023-03-16T02:12:40.802Z,22.90
2023-03-16T02:19:50.594Z,22.02
2023-03-16T02:27:19.561Z,20.40
2023-03-16T02:34:02.563Z,17.42
2023-03-16T02:40:52.773Z,20.23
2023-03-16T02:47:42.957Z,17.15
2023-03-16T02:54:25.394Z,16.73
2023-03-16T03:01:08.204Z,20.65
2023-03-16T03:07:51.426Z,23.38
2023-03-16T03:14:37.948Z,22.45
2023-03-16T03:21:20.952Z,19.08
2023-03-16T03:28:05.549Z,19.17
2023-03-16T03:34:48.217Z,23.05
2023-03-16T03:41:32.847Z,20.80
2023-03-16T03:48:17.403Z,22.48
2023-03-16T03:55:00.813Z,21.48
2023-03-16T04:01:43.275Z,21.05
2023-03-16T04:08:25.640Z,20.05
2023-03-16T04:15:08.896Z,18.17
2023-03-16T04:22:01.142Z,18.33
2023-03-16T04:28:43.740Z,17.70
2023-03-16T04:35:29.732Z,19.08
2023-03-16T04:42:13.071Z,21.77
2023-03-16T04:48:58.210Z,19.58
2023-03-16T04:55:41.942Z,19.50
2023-03-16T05:02:24.446Z,23.08
2023-03-16T05:09:08.613Z,17.88
2023-03-16T05:15:56.120Z,18.38
2023-03-16T05:22:45.772Z,16.25
2023-03-16T05:29:36.074Z,20.17
2023-03-16T05:36:18.644Z,19.77
2023-03-16T05:43:04.666Z,18.40
2023-03-16T05:49:50.548Z,19.58
2023-03-16T05:56:41.502Z,23.30
2023-03-16T06:03:24.748Z,18.63
2023-03-16T06:10:11.395Z,24.40
2023-03-16T06:16:54.724Z,20.63
2023-03-16T06:23:37.862Z,22.55
2023-03-16T06:30:22.349Z,18.50
2023-03-16T06:37:05.179Z,19.85
2023-03-16T06:43:48.217Z,17.90
2023-03-16T06:50:31.136Z,18.05
2023-03-16T06:57:14.008Z,19.98
2023-03-16T07:03:56.449Z,16.38
2023-03-16T07:10:43.204Z,16.83
2023-03-16T07:17:25.688Z,16.63
2023-03-16T07:24:10.358Z,14.63
2023-03-16T07:31:03.334Z,14.57
2023-03-16T07:37:50.586Z,18.40
2023-03-16T07:44:34.519Z,13.13
2023-03-16T07:51:17.045Z,13.98
2023-03-16T07:58:05.652Z,12.40
2023-03-16T08:04:50.505Z,13.07
2023-03-16T08:11:33.791Z,11.80
2023-03-16T08:18:19.005Z,11.05
2023-03-16T08:25:03.408Z,11.25
2023-03-16T08:31:46.999Z,10.77
2023-03-16T08:38:39.943Z,13.77
2023-03-16T08:45:24.804Z,8.77
2023-03-16T08:52:10.164Z,8.82
2023-03-16T08:58:53.019Z,7.68
2023-03-16T09:05:35.384Z,9.55
2023-03-16T09:12:17.832Z,9.15
2023-03-16T09:19:01.142Z,8.57
2023-03-16T09:25:43.433Z,8.15
2023-03-16T09:32:26.387Z,6.55
2023-03-16T09:39:08.896Z,6.28
2023-03-16T09:46:20.992Z,8.48
2023-03-16T09:53:18.985Z,6.47
2023-03-16T10:00:48.259Z,6.75
2023-03-16T10:08:07.716Z,6.40
2023-03-16T10:15:11.835Z,7.10
2023-03-16T10:21:57.798Z,4.80
2023-03-16T10:28:42.286Z,6.68
2023-03-16T10:35:30.677Z,5.80
2023-03-16T10:42:19.961Z,6.50
2023-03-16T10:49:02.288Z,5.57
2023-03-16T10:55:44.950Z,5.20
2023-03-16T11:02:35.443Z,6.25
2023-03-16T11:09:41.766Z,3.35
2023-03-16T11:16:39.038Z,5.70
2023-03-16T11:23:29.312Z,3.67
2023-03-16T11:30:30.939Z,4.40
2023-03-16T11:37:25.690Z,5.70
2023-03-16T11:44:28.778Z,4.32
2023-03-16T11:51:44.905Z,3.00
2023-03-16T11:58:28.217Z,3.20
2023-03-16T12:05:48.616Z,3.35
2023-03-16T12:13:11.923Z,6.78
2023-03-16T12:20:07.194Z,2.90
2023-03-16T12:26:49.994Z,3.53
2023-03-16T12:34:04.579Z,4.15
2023-03-16T12:41:03.644Z,5.07
2023-03-16T12:48:00.239Z,4.50
2023-03-16T12:55:08.372Z,6.22
2023-03-16T13:02:03.615Z,5.60
2023-03-16T13:08:51.334Z,4.22
2023-03-16T13:15:34.284Z,4.22
2023-03-16T13:22:22.713Z,6.22
2023-03-16T13:29:25.708Z,5.85
2023-03-16T13:36:10.354Z,5.72
2023-03-16T13:42:55.187Z,11.35
2023-03-16T13:49:54.751Z,4.60
2023-03-16T13:56:40.244Z,3.97
2023-03-16T14:03:24.557Z,5.30
2023-03-16T14:10:09.651Z,3.80
2023-03-16T14:16:53.557Z,3.22
2023-03-16T14:23:44.045Z,3.33
2023-03-16T14:30:29.074Z,3.95
2023-03-16T14:37:14.702Z,4.15
2023-03-16T14:44:03.017Z,4.07
2023-03-16T14:50:45.828Z,4.72
2023-03-16T14:57:28.333Z,6.45
2023-03-16T15:04:15.136Z,5.40
2023-03-16T15:11:06.022Z,4.53
2023-03-16T15:17:51.247Z,4.10
2023-03-16T15:24:33.812Z,4.45
2023-03-16T15:31:16.474Z,3.47
2023-03-16T15:38:00.569Z,3.05
2023-03-16T15:44:44.100Z,5.25
2023-03-16T15:51:29.681Z,4.80
2023-03-16T15:58:27.542Z,5.72
2023-03-16T16:05:10.279Z,3.60
2023-03-16T16:11:52.633Z,3.88
2023-03-16T16:18:37.288Z,5.65
2023-03-16T16:25:24.640Z,4.30
2023-03-16T16:32:23.253Z,5.72
2023-03-16T16:39:06.551Z,6.57
2023-03-16T16:45:49.683Z,4.88
2023-03-16T16:52:32.271Z,3.83
2023-03-16T16:59:18.340Z,3.40
2023-03-16T17:06:00.815Z,4.50
2023-03-16T17:12:43.936Z,6.30
2023-03-16T17:19:27.900Z,5.03
2023-03-16T17:26:38.304Z,5.47
2023-03-16T17:33:21.020Z,4.15
2023-03-16T17:40:03.425Z,3.58
2023-03-16T17:46:46.393Z,4.05
2023-03-16T17:53:28.727Z,4.07
2023-03-16T18:00:29.720Z,8.20
2023-03-16T18:07:14.608Z,4.90
2023-03-16T18:13:57.104Z,3.55
2023-03-16T18:20:40.269Z,4.32
2023-03-16T18:27:22.628Z,3.10
2023-03-16T18:34:06.475Z,6.28
2023-03-16T18:40:49.297Z,5.00
2023-03-16T18:47:32.980Z,5.65
2023-03-16T18:54:21.984Z,5.53
2023-03-16T19:01:04.985Z,4.47
2023-03-16T19:07:51.308Z,3.40
2023-03-16T19:14:37.074Z,6.63
2023-03-16T19:21:22.925Z,3.88
2023-03-16T19:28:07.585Z,4.78
2023-03-16T19:34:50.067Z,4.63
2023-03-16T19:41:35.349Z,4.82
2023-03-16T19:48:22.580Z,4.88
2023-03-16T19:55:05.278Z,7.82
2023-03-16T20:01:48.159Z,5.22
2023-03-16T20:08:30.951Z,6.72
2023-03-16T20:15:19.889Z,8.18
2023-03-16T20:22:02.184Z,7.90
2023-03-16T20:28:45.009Z,9.45
2023-03-16T20:35:32.390Z,7.22
2023-03-16T20:42:18.999Z,7.05
2023-03-16T20:49:01.450Z,10.85
2023-03-16T20:55:43.912Z,10.38
2023-03-16T21:02:35.112Z,8.60
2023-03-16T21:09:19.049Z,10.70
2023-03-16T21:16:03.196Z,10.35
2023-03-16T21:22:46.019Z,15.95
2023-03-16T21:29:28.586Z,11.80
2023-03-16T21:36:18.153Z,6.03
2023-03-16T21:43:00.699Z,8.85
2023-03-16T21:49:43.354Z,9.70
2023-03-16T21:56:26.257Z,11.98
2023-03-16T22:03:23.503Z,14.00
2023-03-16T22:10:14.583Z,26.85
2023-03-16T22:16:57.287Z,14.18
2023-03-16T22:23:40.871Z,9.57
2023-03-16T22:30:27.324Z,11.55
2023-03-16T22:37:12.361Z,12.68
2023-03-16T22:43:55.507Z,9.73
2023-03-16T22:50:37.860Z,9.50
2023-03-16T22:57:20.479Z,13.30
2023-03-16T23:04:03.408Z,10.00
2023-03-16T23:10:46.106Z,11.68
2023-03-16T23:17:28.443Z,10.15
2023-03-16T23:24:11.458Z,11.25
2023-03-16T23:30:54.012Z,7.90
2023-03-16T23:37:36.516Z,10.80
2023-03-16T23:44:22.545Z,9.05
2023-03-16T23:51:05.582Z,10.63
2023-03-16T23:57:48.540Z,10.77
